createdAt,value
2022-08-19T00:01:40.897Z,65.03
2022-08-19T00:04:10.839Z,65.12
2022-08-19T00:06:38.700Z,65.40
2022-08-19T00:09:07.369Z,65.80
2022-08-19T00:11:35.471Z,66.03
2022-08-19T00:14:02.005Z,66.44
2022-08-19T00:16:28.426Z,66.35
2022-08-19T00:18:56.365Z,66.42
2022-08-19T00:21:25.614Z,66.54
2022-08-19T00:23:52.470Z,66.59
2022-08-19T00:26:19.323Z,66.64
2022-08-19T00:28:45.812Z,66.79
2022-08-19T00:31:12.341Z,66.88
2022-08-19T00:33:38.950Z,67.00
2022-08-19T00:36:08.022Z,67.03
2022-08-19T00:38:37.575Z,66.63
2022-08-19T00:41:06.379Z,66.79
2022-08-19T00:43:33.045Z,66.75
2022-08-19T00:46:00.301Z,66.87
2022-08-19T00:48:27.389Z,67.07
2022-08-19T00:50:55.176Z,67.06
2022-08-19T00:53:25.101Z,67.05
2022-08-19T00:55:55.148Z,66.71
2022-08-19T00:58:25.535Z,66.50
2022-08-19T01:00:52.176Z,67.03
2022-08-19T01:03:21.294Z,67.15
2022-08-19T01:05:49.765Z,67.30
2022-08-19T01:08:18.249Z,67.31
2022-08-19T01:10:49.247Z,67.39
2022-08-19T01:13:17.004Z,67.57
2022-08-19T01:15:49.936Z,67.58
2022-08-19T01:18:18.171Z,67.56
2022-08-19T01:20:45.468Z,67.85
2022-08-19T01:23:13.060Z,67.91
2022-08-19T01:25:45.041Z,68.11
2022-08-19T01:28:33.874Z,67.70
2022-08-19T01:31:01.068Z,68.13
2022-08-19T01:33:35.294Z,68.07
2022-08-19T01:36:23.301Z,67.95
2022-08-19T01:38:50.392Z,67.72
2022-08-19T01:41:18.473Z,68.10
2022-08-19T01:44:10.291Z,68.15
2022-08-19T01:46:33.060Z,68.08
2022-08-19T01:48:59.732Z,67.46
2022-08-19T01:51:27.157Z,67.97
2022-08-19T01:53:55.642Z,68.05
2022-08-19T01:56:22.088Z,68.14
2022-08-19T01:58:58.488Z,68.07
2022-08-19T02:01:25.302Z,68.32
2022-08-19T02:03:57.762Z,68.13
2022-08-19T02:06:26.844Z,68.24
2022-08-19T02:08:53.638Z,68.01
2022-08-19T02:11:27.616Z,68.40
2022-08-19T02:13:55.471Z,68.72
2022-08-19T02:16:22.441Z,68.82
2022-08-19T02:18:49.569Z,69.03
2022-08-19T02:21:17.627Z,69.30
2022-08-19T02:23:44.570Z,69.47
2022-08-19T02:26:11.643Z,69.69
2022-08-19T02:28:38.341Z,69.68
2022-08-19T02:31:10.386Z,69.74
2022-08-19T02:33:37.008Z,69.87
2022-08-19T02:36:08.175Z,70.24
2022-08-19T02:38:35.567Z,70.56
2022-08-19T02:41:05.504Z,70.58
2022-08-19T02:43:37.384Z,70.40
2022-08-19T02:46:29.670Z,70.42
2022-08-19T02:48:59.300Z,70.58
2022-08-19T02:51:29.039Z,70.90
2022-08-19T02:53:56.045Z,70.56
2022-08-19T02:56:22.621Z,70.81
2022-08-19T02:58:49.358Z,70.28
2022-08-19T03:01:33.310Z,70.65
2022-08-19T03:04:01.965Z,70.57
2022-08-19T03:06:28.935Z,70.38
2022-08-19T03:08:56.289Z,70.64
2022-08-19T03:11:30.176Z,71.01
2022-08-19T03:13:56.914Z,70.64
2022-08-19T03:16:27.242Z,70.98
2022-08-19T03:18:54.897Z,71.35
2022-08-19T03:21:24.831Z,71.48
2022-08-19T03:23:54.496Z,71.13
2022-08-19T03:26:21.196Z,71.36
2022-08-19T03:28:51.129Z,71.36
2022-08-19T03:31:44.084Z,71.37
2022-08-19T03:34:18.533Z,71.29
2022-08-19T03:36:45.745Z,71.21
2022-08-19T03:39:12.259Z,71.45
2022-08-19T03:41:45.178Z,71.75
2022-08-19T03:44:23.032Z,71.70
2022-08-19T03:46:56.142Z,71.41
2022-08-19T03:49:27.222Z,71.45
2022-08-19T03:51:57.343Z,71.68
2022-08-19T03:54:26.375Z,71.99
2022-08-19T03:56:55.133Z,71.94
2022-08-19T03:59:26.798Z,71.96
2022-08-19T04:01:58.686Z,71.79
2022-08-19T04:04:29.228Z,71.92
2022-08-19T04:06:56.993Z,71.90
2022-08-19T04:09:23.385Z,72.03
2022-08-19T04:11:56.213Z,72.24
2022-08-19T04:14:26.028Z,72.04
2022-08-19T04:16:53.630Z,71.92
2022-08-19T04:19:20.823Z,71.97
2022-08-19T04:21:49.780Z,72.05
2022-08-19T04:24:16.931Z,72.34
2022-08-19T04:26:43.952Z,71.83
2022-08-19T04:29:16.647Z,72.14
2022-08-19T04:31:45.999Z,71.78
2022-08-19T04:34:16.032Z,72.11
2022-08-19T04:36:45.415Z,71.47
2022-08-19T04:39:16.888Z,72.14
2022-08-19T04:42:02.875Z,71.89
2022-08-19T04:44:35.171Z,71.83
2022-08-19T04:47:10.858Z,71.88
2022-08-19T04:49:38.376Z,71.66
2022-08-19T04:52:04.889Z,71.92
2022-08-19T04:54:38.336Z,71.74
2022-08-19T04:57:10.553Z,71.99
2022-08-19T04:59:39.350Z,72.47
2022-08-19T05:02:07.555Z,72.41
2022-08-19T05:04:34.512Z,72.68
2022-08-19T05:07:02.123Z,72.85
2022-08-19T05:09:55.430Z,71.99
2022-08-19T05:12:16.485Z,72.04
2022-08-19T05:14:42.942Z,72.36
2022-08-19T05:17:26.459Z,72.56
2022-08-19T05:20:13.385Z,72.50
2022-08-19T05:22:40.116Z,72.50
2022-08-19T05:25:13.185Z,72.80
2022-08-19T05:27:41.304Z,73.21
2022-08-19T05:30:08.451Z,73.00
2022-08-19T05:32:34.968Z,73.21
2022-08-19T05:35:01.675Z,73.26
2022-08-19T05:37:28.448Z,73.35
2022-08-19T05:39:55.957Z,73.09
2022-08-19T05:42:23.874Z,73.39
2022-08-19T05:44:51.151Z,73.50
2022-08-19T05:47:19.700Z,73.71
2022-08-19T05:49:46.578Z,73.96
2022-08-19T05:52:16.944Z,73.77
2022-08-19T05:54:51.276Z,73.96
2022-08-19T05:57:19.818Z,74.35
2022-08-19T05:59:49.445Z,74.44
2022-08-19T06:02:20.335Z,74.70
2022-08-19T06:04:46.992Z,74.83
2022-08-19T06:07:13.397Z,74.19
2022-08-19T06:09:41.072Z,74.49
2022-08-19T06:12:10.307Z,74.41
2022-08-19T06:14:40.226Z,74.27
2022-08-19T06:17:09.223Z,73.99
2022-08-19T06:19:40.810Z,74.17
2022-08-19T06:22:08.421Z,73.75
2022-08-19T06:24:36.055Z,73.44
2022-08-19T06:27:03.726Z,73.30
2022-08-19T06:29:30.997Z,73.30
2022-08-19T06:32:00.522Z,73.25
2022-08-19T06:34:29.183Z,73.21
2022-08-19T06:36:56.846Z,72.72
2022-08-19T06:39:26.415Z,72.29
2022-08-19T06:41:58.576Z,72.59
2022-08-19T06:44:35.399Z,72.50
2022-08-19T06:47:14.660Z,72.44
2022-08-19T06:49:49.579Z,72.29
2022-08-19T06:52:16.461Z,72.62
2022-08-19T06:54:56.030Z,72.39
2022-08-19T06:57:25.412Z,72.33
2022-08-19T06:59:52.391Z,72.02
2022-08-19T07:02:20.157Z,71.69
2022-08-19T07:04:46.928Z,72.34
2022-08-19T07:07:19.595Z,72.45
2022-08-19T07:09:51.816Z,72.46
2022-08-19T07:12:25.199Z,72.48
2022-08-19T07:14:53.619Z,72.36
2022-08-19T07:17:21.110Z,72.28
2022-08-19T07:19:48.560Z,72.16
2022-08-19T07:22:15.897Z,72.27
2022-08-19T07:24:51.101Z,71.88
2022-08-19T07:27:19.715Z,71.79
2022-08-19T07:29:56.085Z,71.86
2022-08-19T07:32:26.849Z,71.75
2022-08-19T07:34:53.686Z,71.76
2022-08-19T07:37:20.156Z,71.57
2022-08-19T07:39:46.710Z,71.33
2022-08-19T07:42:14.622Z,71.14
2022-08-19T07:44:42.091Z,71.21
2022-08-19T07:47:12.023Z,70.93
2022-08-19T07:49:55.454Z,71.12
2022-08-19T07:52:22.056Z,71.15
2022-08-19T07:54:48.682Z,71.19
2022-08-19T07:57:15.123Z,71.30
2022-08-19T07:59:41.627Z,71.14
2022-08-19T08:02:09.895Z,71.14
2022-08-19T08:04:55.098Z,71.24
2022-08-19T08:07:39.880Z,70.93
2022-08-19T08:10:21.256Z,71.11
2022-08-19T08:12:52.283Z,71.15
2022-08-19T08:15:39.971Z,71.20
2022-08-19T08:18:08.599Z,70.92
2022-08-19T08:20:36.045Z,71.12
2022-08-19T08:23:21.580Z,71.30
2022-08-19T08:25:49.366Z,70.76
2022-08-19T08:28:17.978Z,70.75
2022-08-19T08:30:48.451Z,70.79
2022-08-19T08:33:32.885Z,70.90
2022-08-19T08:36:09.543Z,71.08
2022-08-19T08:38:41.208Z,71.31
2022-08-19T08:41:38.172Z,71.10
2022-08-19T08:44:05.672Z,70.93
2022-08-19T08:46:40.929Z,71.18
2022-08-19T08:49:29.019Z,71.17
2022-08-19T08:52:03.370Z,71.45
2022-08-19T08:54:38.593Z,70.96
2022-08-19T08:57:12.023Z,71.29
2022-08-19T08:59:42.026Z,71.03
2022-08-19T09:02:09.667Z,70.71
2022-08-19T09:04:38.530Z,71.18
2022-08-19T09:07:18.668Z,71.16
2022-08-19T09:10:18.796Z,71.00
2022-08-19T09:13:09.346Z,71.29
2022-08-19T09:15:45.309Z,71.33
2022-08-19T09:18:19.142Z,71.62
2022-08-19T09:20:47.862Z,71.74
2022-08-19T09:23:15.256Z,71.84
2022-08-19T09:25:42.055Z,72.43
2022-08-19T09:28:22.013Z,72.03
2022-08-19T09:30:49.517Z,71.88
2022-08-19T09:33:16.531Z,72.25
2022-08-19T09:35:49.503Z,72.54
2022-08-19T09:38:16.707Z,73.03
2022-08-19T09:40:43.217Z,72.95
2022-08-19T09:43:13.412Z,72.67
2022-08-19T09:45:40.432Z,72.42
2022-08-19T09:48:07.121Z,72.83
2022-08-19T09:50:35.093Z,72.96
2022-08-19T09:53:01.538Z,72.94
2022-08-19T09:55:31.680Z,72.88
2022-08-19T09:58:00.844Z,73.00
2022-08-19T10:00:27.895Z,73.21
2022-08-19T10:02:54.360Z,72.98
2022-08-19T10:05:42.331Z,72.24
2022-08-19T10:08:13.713Z,71.80
2022-08-19T10:10:46.640Z,71.98
2022-08-19T10:13:16.404Z,71.65
2022-08-19T10:15:47.827Z,71.42
2022-08-19T10:18:18.607Z,70.99
2022-08-19T10:20:51.584Z,71.09
2022-08-19T10:23:21.380Z,70.60
2022-08-19T10:25:48.982Z,70.38
2022-08-19T10:28:15.580Z,69.74
2022-08-19T10:30:42.838Z,69.63
2022-08-19T10:33:10.975Z,69.44
2022-08-19T10:35:56.240Z,69.09
2022-08-19T10:38:31.553Z,69.21
2022-08-19T10:41:07.610Z,68.80
2022-08-19T10:43:36.955Z,68.88
2022-08-19T10:46:04.729Z,69.39
2022-08-19T10:48:36.314Z,69.30
2022-08-19T10:51:23.073Z,69.00
2022-08-19T10:53:50.716Z,69.10
2022-08-19T10:56:37.296Z,69.24
2022-08-19T10:59:04.441Z,69.88
2022-08-19T11:01:34.150Z,69.73
2022-08-19T11:04:05.094Z,70.51
2022-08-19T11:06:34.637Z,70.38
2022-08-19T11:09:01.240Z,70.11
2022-08-19T11:11:29.331Z,69.71
2022-08-19T11:13:56.463Z,70.21
2022-08-19T11:16:26.228Z,70.61
2022-08-19T11:18:55.790Z,70.50
2022-08-19T11:21:33.113Z,70.25
2022-08-19T11:24:02.466Z,70.11
2022-08-19T11:26:31.164Z,69.98
2022-08-19T11:28:58.546Z,70.02
2022-08-19T11:31:29.454Z,69.93
2022-08-19T11:34:02.425Z,69.73
2022-08-19T11:36:29.141Z,69.51
2022-08-19T11:38:55.634Z,69.29
2022-08-19T11:41:24.418Z,68.58
2022-08-19T11:43:53.710Z,68.22
2022-08-19T11:46:20.074Z,67.01
2022-08-19T11:48:47.004Z,66.95
2022-08-19T11:51:16.606Z,67.00
2022-08-19T11:53:43.311Z,66.88
2022-08-19T11:56:10.161Z,67.44
2022-08-19T11:58:37.596Z,67.88
2022-08-19T12:01:16.878Z,67.54
2022-08-19T12:03:44.971Z,66.46
2022-08-19T12:06:14.667Z,65.80
2022-08-19T12:08:43.254Z,65.13
2022-08-19T12:11:11.098Z,65.75
2022-08-19T12:13:39.684Z,65.52
2022-08-19T12:16:15.848Z,66.04
2022-08-19T12:18:47.306Z,66.67
2022-08-19T12:21:15.574Z,66.02
2022-08-19T12:23:44.063Z,66.44
2022-08-19T12:26:11.677Z,66.09
2022-08-19T12:28:38.916Z,66.34
2022-08-19T12:31:06.541Z,65.74
2022-08-19T12:33:33.213Z,66.22
2022-08-19T12:36:09.140Z,65.46
2022-08-19T12:38:36.495Z,64.79
2022-08-19T12:41:06.503Z,64.38
2022-08-19T12:43:35.918Z,62.10
2022-08-19T12:46:06.645Z,61.44
2022-08-19T12:48:37.915Z,61.71
2022-08-19T12:51:11.874Z,61.16
2022-08-19T12:53:39.291Z,62.43
2022-08-19T12:56:09.978Z,62.94
2022-08-19T12:58:39.538Z,63.42
2022-08-19T13:01:11.499Z,63.32
2022-08-19T13:03:40.600Z,62.01
2022-08-19T13:06:09.468Z,61.59
2022-08-19T13:08:42.723Z,61.86
2022-08-19T13:11:17.413Z,61.55
2022-08-19T13:13:47.044Z,59.10
2022-08-19T13:16:15.251Z,57.42
2022-08-19T13:18:43.246Z,56.78
2022-08-19T13:21:14.074Z,57.20
2022-08-19T13:23:41.791Z,57.93
2022-08-19T13:26:10.221Z,58.26
2022-08-19T13:28:55.085Z,59.43
2022-08-19T13:31:42.504Z,59.72
2022-08-19T13:34:09.616Z,59.93
2022-08-19T13:36:37.050Z,59.92
2022-08-19T13:39:05.300Z,60.15
2022-08-19T13:41:32.223Z,60.56
2022-08-19T13:43:58.666Z,60.91
2022-08-19T13:46:25.073Z,60.87
2022-08-19T13:48:51.516Z,61.30
2022-08-19T13:51:18.775Z,61.35
2022-08-19T13:53:48.046Z,61.17
2022-08-19T13:56:17.695Z,61.05
2022-08-19T13:58:44.433Z,61.47
2022-08-19T14:01:11.499Z,61.02
2022-08-19T14:03:38.938Z,61.47
2022-08-19T14:06:05.422Z,62.34
2022-08-19T14:08:33.132Z,61.28
2022-08-19T14:11:00.522Z,60.95
2022-08-19T14:13:34.807Z,61.53
2022-08-19T14:16:01.433Z,61.49
2022-08-19T14:18:28.650Z,61.42
2022-08-19T14:20:57.790Z,61.28
2022-08-19T14:23:25.609Z,61.76
2022-08-19T14:25:52.193Z,61.80
2022-08-19T14:28:18.747Z,61.84
2022-08-19T14:30:45.441Z,61.63
2022-08-19T14:33:12.547Z,61.92
2022-08-19T14:35:39.028Z,62.19
2022-08-19T14:38:06.919Z,61.86
2022-08-19T14:40:33.579Z,61.93
2022-08-19T14:43:04.748Z,62.21
2022-08-19T14:45:33.771Z,63.23
2022-08-19T14:48:01.188Z,62.83
2022-08-19T14:50:28.425Z,62.65
2022-08-19T14:53:09.052Z,63.07
2022-08-19T14:55:43.219Z,62.38
2022-08-19T14:58:09.855Z,62.33
2022-08-19T15:00:56.423Z,62.72
2022-08-19T15:03:22.880Z,62.51
2022-08-19T15:05:49.311Z,62.25
2022-08-19T15:08:15.853Z,62.65
2022-08-19T15:10:42.367Z,62.10
2022-08-19T15:13:09.036Z,62.85
2022-08-19T15:15:35.982Z,62.00
2022-08-19T15:18:03.529Z,62.33
2022-08-19T15:20:30.033Z,61.46
2022-08-19T15:22:56.513Z,61.72
2022-08-19T15:25:23.059Z,61.10
2022-08-19T15:27:49.485Z,61.12
2022-08-19T15:30:22.238Z,61.26
2022-08-19T15:32:49.316Z,61.70
2022-08-19T15:35:16.765Z,61.16
2022-08-19T15:37:43.726Z,60.92
2022-08-19T15:40:10.518Z,60.64
2022-08-19T15:42:38.014Z,60.77
2022-08-19T15:45:09.869Z,61.15
2022-08-19T15:47:36.980Z,61.44
2022-08-19T15:50:18.229Z,61.33
2022-08-19T15:52:54.178Z,60.85
2022-08-19T15:55:33.065Z,59.93
2022-08-19T15:58:30.985Z,60.17
2022-08-19T16:01:20.489Z,59.88
2022-08-19T16:04:13.867Z,60.24
2022-08-19T16:06:53.201Z,59.48
2022-08-19T16:09:27.487Z,59.11
2022-08-19T16:11:57.133Z,58.55
2022-08-19T16:14:28.727Z,58.89
2022-08-19T16:16:56.703Z,58.90
2022-08-19T16:19:24.475Z,58.52
2022-08-19T16:21:53.329Z,58.39
2022-08-19T16:24:23.570Z,58.73
2022-08-19T16:26:50.373Z,58.09
2022-08-19T16:29:33.360Z,57.95
2022-08-19T16:32:03.419Z,58.37
2022-08-19T16:34:30.705Z,58.84
2022-08-19T16:36:57.263Z,59.13
2022-08-19T16:39:24.217Z,59.41
2022-08-19T16:41:51.957Z,59.42
2022-08-19T16:44:19.315Z,59.71
2022-08-19T16:46:47.215Z,60.34
2022-08-19T16:49:54.437Z,60.10
2022-08-19T16:52:12.871Z,60.33
2022-08-19T16:54:43.774Z,60.01
2022-08-19T16:57:12.259Z,60.65
2022-08-19T16:59:48.170Z,60.67
2022-08-19T17:02:18.597Z,60.72
2022-08-19T17:04:57.344Z,61.42
2022-08-19T17:07:33.268Z,61.31
2022-08-19T17:10:01.980Z,61.87
2022-08-19T17:12:31.549Z,61.47
2022-08-19T17:14:59.882Z,61.37
2022-08-19T17:17:29.153Z,62.18
2022-08-19T17:19:55.906Z,61.81
2022-08-19T17:22:22.456Z,62.01
2022-08-19T17:24:49.389Z,61.96
2022-08-19T17:27:15.826Z,62.21
2022-08-19T17:29:46.778Z,62.28
2022-08-19T17:32:14.391Z,62.04
2022-08-19T17:34:40.927Z,62.61
2022-08-19T17:37:07.654Z,62.49
2022-08-19T17:39:37.227Z,63.22
2022-08-19T17:42:06.660Z,62.83
2022-08-19T17:44:36.428Z,62.79
2022-08-19T17:47:04.253Z,62.81
2022-08-19T17:49:33.428Z,63.27
2022-08-19T17:52:00.673Z,62.91
2022-08-19T17:54:30.609Z,63.55
2022-08-19T17:57:01.413Z,63.39
2022-08-19T17:59:29.961Z,63.56
2022-08-19T18:01:57.612Z,63.12
2022-08-19T18:04:25.462Z,63.34
2022-08-19T18:06:54.372Z,63.32
2022-08-19T18:09:26.067Z,63.67
2022-08-19T18:11:54.543Z,63.39
2022-08-19T18:14:32.274Z,63.14
2022-08-19T18:17:09.354Z,63.52
2022-08-19T18:19:41.512Z,63.33
2022-08-19T18:22:10.957Z,63.75
2022-08-19T18:24:39.687Z,64.06
2022-08-19T18:27:07.144Z,64.30
2022-08-19T18:29:34.096Z,64.25
2022-08-19T18:32:00.646Z,63.93
2022-08-19T18:34:27.080Z,64.16
2022-08-19T18:36:54.241Z,64.31
2022-08-19T18:39:39.648Z,64.89
2022-08-19T18:42:34.983Z,64.59
2022-08-19T18:45:24.777Z,64.40
2022-08-19T18:48:27.029Z,64.30
2022-08-19T18:50:56.917Z,64.60
2022-08-19T18:53:23.833Z,65.17
2022-08-19T18:55:53.974Z,65.28
2022-08-19T18:58:33.644Z,65.33
2022-08-19T19:01:03.524Z,65.36
2022-08-19T19:03:30.064Z,65.64
2022-08-19T19:05:56.610Z,65.73
2022-08-19T19:08:26.995Z,66.13
2022-08-19T19:10:54.551Z,66.18
2022-08-19T19:13:21.001Z,66.13
2022-08-19T19:15:47.523Z,66.61
2022-08-19T19:18:13.988Z,66.77
2022-08-19T19:20:40.869Z,66.82
2022-08-19T19:23:08.585Z,66.55
2022-08-19T19:25:49.879Z,66.72
2022-08-19T19:28:17.656Z,66.99
2022-08-19T19:30:44.170Z,67.19
2022-08-19T19:33:10.779Z,67.57
2022-08-19T19:35:37.236Z,67.64
2022-08-19T19:38:04.328Z,67.77
2022-08-19T19:40:30.984Z,67.70
2022-08-19T19:42:59.707Z,67.92
2022-08-19T19:45:26.957Z,68.10
2022-08-19T19:47:53.688Z,68.18
2022-08-19T19:50:20.269Z,68.31
2022-08-19T19:52:46.966Z,68.46
2022-08-19T19:55:18.647Z,68.46
2022-08-19T19:57:46.559Z,68.88
2022-08-19T20:00:16.261Z,68.72
2022-08-19T20:02:49.264Z,69.05
2022-08-19T20:05:19.127Z,68.93
2022-08-19T20:08:04.243Z,69.17
2022-08-19T20:10:32.250Z,69.17
2022-08-19T20:13:02.219Z,69.24
2022-08-19T20:15:29.334Z,69.37
2022-08-19T20:17:55.993Z,69.59
2022-08-19T20:20:23.630Z,69.56
2022-08-19T20:22:50.084Z,69.58
2022-08-19T20:25:18.739Z,69.85
2022-08-19T20:27:49.702Z,69.98
2022-08-19T20:30:21.038Z,70.11
2022-08-19T20:32:49.608Z,70.46
2022-08-19T20:35:18.678Z,70.28
2022-08-19T20:37:45.184Z,70.30
2022-08-19T20:40:16.333Z,70.37
2022-08-19T20:42:47.135Z,69.96
2022-08-19T20:45:32.153Z,70.26
2022-08-19T20:47:59.153Z,70.08
2022-08-19T20:50:26.094Z,70.03
2022-08-19T20:52:56.426Z,70.29
2022-08-19T20:55:22.941Z,70.43
2022-08-19T20:57:49.531Z,70.68
2022-08-19T21:00:16.188Z,70.87
2022-08-19T21:02:42.691Z,70.84
2022-08-19T21:05:09.231Z,70.77
2022-08-19T21:07:38.995Z,70.72
2022-08-19T21:10:06.923Z,71.04
2022-08-19T21:12:33.588Z,71.18
2022-08-19T21:15:00.199Z,71.08
2022-08-19T21:17:26.792Z,71.33
2022-08-19T21:19:53.437Z,71.30
2022-08-19T21:22:20.082Z,71.49
2022-08-19T21:24:46.533Z,71.14
2022-08-19T21:27:13.012Z,71.65
2022-08-19T21:29:40.466Z,71.62
2022-08-19T21:32:07.307Z,72.06
2022-08-19T21:34:33.732Z,72.35
2022-08-19T21:37:00.204Z,72.28
2022-08-19T21:39:27.573Z,72.24
2022-08-19T21:41:54.369Z,72.20
2022-08-19T21:44:20.839Z,72.22
2022-08-19T21:46:50.334Z,72.24
2022-08-19T21:49:17.088Z,72.12
2022-08-19T21:51:43.628Z,72.55
2022-08-19T21:54:14.207Z,72.19
2022-08-19T21:56:41.612Z,72.14
2022-08-19T21:59:08.685Z,72.24
2022-08-19T22:01:35.813Z,72.39
2022-08-19T22:04:02.208Z,72.52
2022-08-19T22:06:29.713Z,72.50
2022-08-19T22:08:56.104Z,72.42
2022-08-19T22:11:23.831Z,72.50
2022-08-19T22:13:53.732Z,72.43
2022-08-19T22:16:20.836Z,72.51
2022-08-19T22:18:48.688Z,72.78
2022-08-19T22:21:15.269Z,72.65
2022-08-19T22:23:47.446Z,72.92
2022-08-19T22:26:16.008Z,73.03
2022-08-19T22:28:43.056Z,73.70
2022-08-19T22:31:10.537Z,73.92
2022-08-19T22:33:38.430Z,74.11
2022-08-19T22:36:10.842Z,74.08
2022-08-19T22:38:38.182Z,73.93
2022-08-19T22:41:07.050Z,73.46
2022-08-19T22:43:34.290Z,73.63
2022-08-19T22:46:01.127Z,73.31
2022-08-19T22:48:30.177Z,73.39
2022-08-19T22:51:16.208Z,73.20
2022-08-19T22:53:44.962Z,73.23
2022-08-19T22:56:15.377Z,73.10
2022-08-19T22:58:42.356Z,73.59
2022-08-19T23:01:11.246Z,73.85
2022-08-19T23:03:51.473Z,73.55
2022-08-19T23:06:18.020Z,73.76
2022-08-19T23:08:44.535Z,73.67
2022-08-19T23:11:11.464Z,73.63
2022-08-19T23:13:39.317Z,73.96
2022-08-19T23:16:06.372Z,73.67
2022-08-19T23:18:34.093Z,73.60
2022-08-19T23:21:01.249Z,73.63
2022-08-19T23:23:28.185Z,73.64
2022-08-19T23:25:56.584Z,73.63
2022-08-19T23:28:42.916Z,73.90
2022-08-19T23:31:09.512Z,73.71
2022-08-19T23:33:50.805Z,73.66
2022-08-19T23:36:20.271Z,73.61
2022-08-19T23:38:49.098Z,73.77
2022-08-19T23:41:17.591Z,73.84
2022-08-19T23:43:44.441Z,73.81
2022-08-19T23:46:13.391Z,74.01
2022-08-19T23:48:40.776Z,73.84
2022-08-19T23:51:10.854Z,73.84
2022-08-19T23:53:41.422Z,73.90
2022-08-19T23:56:10.463Z,73.85
2022-08-19T23:58:38.310Z,73.54
